sensor_id;sensor_type;location;lat;lon;timestamp;temperature;humidity
37560;DHT22;23398;50.928;7.084;2024-02-14T00:01:33;12.90;63.60
37560;DHT22;23398;50.928;7.084;2024-02-14T00:04:03;13.00;63.70
37560;DHT22;23398;50.928;7.084;2024-02-14T00:06:29;13.00;63.50
37560;DHT22;23398;50.928;7.084;2024-02-14T00:08:54;13.00;63.50
37560;DHT22;23398;50.928;7.084;2024-02-14T00:11:20;13.00;63.30
37560;DHT22;23398;50.928;7.084;2024-02-14T00:13:45;13.00;63.30
37560;DHT22;23398;50.928;7.084;2024-02-14T00:16:11;13.00;63.30
37560;DHT22;23398;50.928;7.084;2024-02-14T00:18:37;13.00;63.30
37560;DHT22;23398;50.928;7.084;2024-02-14T00:21:02;13.00;63.20
37560;DHT22;23398;50.928;7.084;2024-02-14T00:23:28;13.00;63.20
37560;DHT22;23398;50.928;7.084;2024-02-14T00:25:54;13.00;63.20
37560;DHT22;23398;50.928;7.084;2024-02-14T00:28:19;13.10;63.20
37560;DHT22;23398;50.928;7.084;2024-02-14T00:30:45;13.10;63.20
37560;DHT22;23398;50.928;7.084;2024-02-14T00:33:11;13.10;63.10
37560;DHT22;23398;50.928;7.084;2024-02-14T00:35:36;13.10;63.10
37560;DHT22;23398;50.928;7.084;2024-02-14T00:38:02;13.10;63.20
37560;DHT22;23398;50.928;7.084;2024-02-14T00:40:28;13.10;63.30
37560;DHT22;23398;50.928;7.084;2024-02-14T00:42:53;13.20;63.30
37560;DHT22;23398;50.928;7.084;2024-02-14T00:45:19;13.20;63.40
37560;DHT22;23398;50.928;7.084;2024-02-14T00:47:44;13.20;63.40
37560;DHT22;23398;50.928;7.084;2024-02-14T00:50:10;13.20;63.40
37560;DHT22;23398;50.928;7.084;2024-02-14T00:52:35;13.20;63.40
37560;DHT22;23398;50.928;7.084;2024-02-14T00:55:01;13.20;63.50
37560;DHT22;23398;50.928;7.084;2024-02-14T00:57:29;13.20;63.50
37560;DHT22;23398;50.928;7.084;2024-02-14T00:59:54;13.30;63.70
37560;DHT22;23398;50.928;7.084;2024-02-14T01:02:22;13.30;63.80
37560;DHT22;23398;50.928;7.084;2024-02-14T01:04:47;13.30;63.90
37560;DHT22;23398;50.928;7.084;2024-02-14T01:07:13;13.30;63.90
37560;DHT22;23398;50.928;7.084;2024-02-14T01:09:38;13.30;63.90
37560;DHT22;23398;50.928;7.084;2024-02-14T01:12:04;13.30;64.00
37560;DHT22;23398;50.928;7.084;2024-02-14T01:14:31;13.30;64.10
37560;DHT22;23398;50.928;7.084;2024-02-14T01:16:56;13.30;64.20
37560;DHT22;23398;50.928;7.084;2024-02-14T01:19:22;13.30;64.20
37560;DHT22;23398;50.928;7.084;2024-02-14T01:21:49;13.30;64.20
37560;DHT22;23398;50.928;7.084;2024-02-14T01:24:15;13.30;64.30
37560;DHT22;23398;50.928;7.084;2024-02-14T01:26:41;13.30;64.30
37560;DHT22;23398;50.928;7.084;2024-02-14T01:29:07;13.30;64.40
37560;DHT22;23398;50.928;7.084;2024-02-14T01:31:33;13.30;64.30
37560;DHT22;23398;50.928;7.084;2024-02-14T01:34:00;13.30;64.30
37560;DHT22;23398;50.928;7.084;2024-02-14T01:36:30;13.30;64.30
37560;DHT22;23398;50.928;7.084;2024-02-14T01:38:56;13.30;64.30
37560;DHT22;23398;50.928;7.084;2024-02-14T01:41:21;13.30;64.40
37560;DHT22;23398;50.928;7.084;2024-02-14T01:43:47;13.30;64.50
37560;DHT22;23398;50.928;7.084;2024-02-14T01:46:13;13.30;64.50
37560;DHT22;23398;50.928;7.084;2024-02-14T01:48:39;13.40;64.60
37560;DHT22;23398;50.928;7.084;2024-02-14T01:51:08;13.40;64.60
37560;DHT22;23398;50.928;7.084;2024-02-14T01:53:36;13.40;64.60
37560;DHT22;23398;50.928;7.084;2024-02-14T01:56:02;13.40;64.50
37560;DHT22;23398;50.928;7.084;2024-02-14T01:58:30;13.40;64.50
37560;DHT22;23398;50.928;7.084;2024-02-14T02:00:56;13.40;64.50
37560;DHT22;23398;50.928;7.084;2024-02-14T02:03:24;13.40;64.60
37560;DHT22;23398;50.928;7.084;2024-02-14T02:05:50;13.40;64.50
37560;DHT22;23398;50.928;7.084;2024-02-14T02:08:16;13.40;64.50
37560;DHT22;23398;50.928;7.084;2024-02-14T02:10:42;13.40;64.60
37560;DHT22;23398;50.928;7.084;2024-02-14T02:13:08;13.40;64.80
37560;DHT22;23398;50.928;7.084;2024-02-14T02:15:34;13.50;65.00
37560;DHT22;23398;50.928;7.084;2024-02-14T02:18:02;13.50;65.00
37560;DHT22;23398;50.928;7.084;2024-02-14T02:20:28;13.50;64.90
37560;DHT22;23398;50.928;7.084;2024-02-14T02:22:53;13.50;64.90
37560;DHT22;23398;50.928;7.084;2024-02-14T02:25:19;13.50;64.90
37560;DHT22;23398;50.928;7.084;2024-02-14T02:27:52;13.50;64.80
37560;DHT22;23398;50.928;7.084;2024-02-14T02:30:23;13.50;64.90
37560;DHT22;23398;50.928;7.084;2024-02-14T02:32:49;13.50;64.90
37560;DHT22;23398;50.928;7.084;2024-02-14T02:35:16;13.50;64.90
37560;DHT22;23398;50.928;7.084;2024-02-14T02:37:42;13.50;64.90
37560;DHT22;23398;50.928;7.084;2024-02-14T02:40:10;13.50;64.90
37560;DHT22;23398;50.928;7.084;2024-02-14T02:42:38;13.60;65.00
37560;DHT22;23398;50.928;7.084;2024-02-14T02:45:03;13.60;65.10
37560;DHT22;23398;50.928;7.084;2024-02-14T02:47:31;13.60;65.10
37560;DHT22;23398;50.928;7.084;2024-02-14T02:49:57;13.60;65.10
37560;DHT22;23398;50.928;7.084;2024-02-14T02:52:25;13.60;65.20
37560;DHT22;23398;50.928;7.084;2024-02-14T02:54:51;13.60;65.20
37560;DHT22;23398;50.928;7.084;2024-02-14T02:57:18;13.60;65.20
37560;DHT22;23398;50.928;7.084;2024-02-14T02:59:44;13.60;65.20
37560;DHT22;23398;50.928;7.084;2024-02-14T03:02:12;13.60;65.30
37560;DHT22;23398;50.928;7.084;2024-02-14T03:04:38;13.60;65.30
37560;DHT22;23398;50.928;7.084;2024-02-14T03:07:04;13.60;65.30
37560;DHT22;23398;50.928;7.084;2024-02-14T03:09:32;13.60;65.40
37560;DHT22;23398;50.928;7.084;2024-02-14T03:11:58;13.60;65.90
37560;DHT22;23398;50.928;7.084;2024-02-14T03:14:23;13.60;65.40
37560;DHT22;23398;50.928;7.084;2024-02-14T03:16:49;13.60;65.50
37560;DHT22;23398;50.928;7.084;2024-02-14T03:19:15;13.70;65.60
37560;DHT22;23398;50.928;7.084;2024-02-14T03:21:41;13.70;65.60
37560;DHT22;23398;50.928;7.084;2024-02-14T03:24:08;13.60;65.50
37560;DHT22;23398;50.928;7.084;2024-02-14T03:26:36;13.60;65.60
37560;DHT22;23398;50.928;7.084;2024-02-14T03:29:04;13.70;65.70
37560;DHT22;23398;50.928;7.084;2024-02-14T03:31:32;13.70;65.70
37560;DHT22;23398;50.928;7.084;2024-02-14T03:33:59;13.70;65.70
37560;DHT22;23398;50.928;7.084;2024-02-14T03:36:24;13.70;65.80
37560;DHT22;23398;50.928;7.084;2024-02-14T03:38:53;13.70;65.90
37560;DHT22;23398;50.928;7.084;2024-02-14T03:41:19;13.70;65.90
37560;DHT22;23398;50.928;7.084;2024-02-14T03:43:44;13.70;66.70
37560;DHT22;23398;50.928;7.084;2024-02-14T03:46:10;13.70;66.00
37560;DHT22;23398;50.928;7.084;2024-02-14T03:48:37;13.70;66.00
37560;DHT22;23398;50.928;7.084;2024-02-14T03:51:04;13.70;66.20
37560;DHT22;23398;50.928;7.084;2024-02-14T03:53:29;13.70;66.20
37560;DHT22;23398;50.928;7.084;2024-02-14T03:55:56;13.70;66.30
37560;DHT22;23398;50.928;7.084;2024-02-14T03:58:22;13.70;66.30
37560;DHT22;23398;50.928;7.084;2024-02-14T04:00:51;13.70;66.50
37560;DHT22;23398;50.928;7.084;2024-02-14T04:03:17;13.70;66.50
37560;DHT22;23398;50.928;7.084;2024-02-14T04:05:43;13.70;66.50
37560;DHT22;23398;50.928;7.084;2024-02-14T04:08:10;13.70;66.50
37560;DHT22;23398;50.928;7.084;2024-02-14T04:10:36;13.70;66.50
37560;DHT22;23398;50.928;7.084;2024-02-14T04:13:05;13.70;66.50
37560;DHT22;23398;50.928;7.084;2024-02-14T04:15:32;13.70;66.60
37560;DHT22;23398;50.928;7.084;2024-02-14T04:17:57;13.70;66.60
37560;DHT22;23398;50.928;7.084;2024-02-14T04:20:25;13.70;66.60
37560;DHT22;23398;50.928;7.084;2024-02-14T04:22:50;13.70;66.70
37560;DHT22;23398;50.928;7.084;2024-02-14T04:25:16;13.70;66.80
37560;DHT22;23398;50.928;7.084;2024-02-14T04:27:42;13.70;66.80
37560;DHT22;23398;50.928;7.084;2024-02-14T04:30:08;13.70;66.80
37560;DHT22;23398;50.928;7.084;2024-02-14T04:32:33;13.70;67.00
37560;DHT22;23398;50.928;7.084;2024-02-14T04:34:59;13.70;66.90
37560;DHT22;23398;50.928;7.084;2024-02-14T04:37:24;13.70;66.90
37560;DHT22;23398;50.928;7.084;2024-02-14T04:39:50;13.70;67.00
37560;DHT22;23398;50.928;7.084;2024-02-14T04:42:15;13.70;67.00
37560;DHT22;23398;50.928;7.084;2024-02-14T04:44:41;13.80;67.10
37560;DHT22;23398;50.928;7.084;2024-02-14T04:47:07;13.70;67.00
37560;DHT22;23398;50.928;7.084;2024-02-14T04:49:35;13.80;67.10
37560;DHT22;23398;50.928;7.084;2024-02-14T04:52:00;13.80;67.20
37560;DHT22;23398;50.928;7.084;2024-02-14T04:54:26;13.80;67.20
37560;DHT22;23398;50.928;7.084;2024-02-14T04:56:52;13.80;67.20
37560;DHT22;23398;50.928;7.084;2024-02-14T04:59:18;13.80;67.30
37560;DHT22;23398;50.928;7.084;2024-02-14T05:01:44;13.80;67.20
37560;DHT22;23398;50.928;7.084;2024-02-14T05:04:10;13.80;67.20
37560;DHT22;23398;50.928;7.084;2024-02-14T05:06:38;13.80;67.30
37560;DHT22;23398;50.928;7.084;2024-02-14T05:09:04;13.80;67.20
37560;DHT22;23398;50.928;7.084;2024-02-14T05:11:30;13.80;67.30
37560;DHT22;23398;50.928;7.084;2024-02-14T05:13:56;13.80;67.20
37560;DHT22;23398;50.928;7.084;2024-02-14T05:16:21;13.80;67.30
37560;DHT22;23398;50.928;7.084;2024-02-14T05:18:48;13.90;67.40
37560;DHT22;23398;50.928;7.084;2024-02-14T05:21:14;13.90;67.40
37560;DHT22;23398;50.928;7.084;2024-02-14T05:23:40;13.80;67.30
37560;DHT22;23398;50.928;7.084;2024-02-14T05:26:06;13.80;67.30
37560;DHT22;23398;50.928;7.084;2024-02-14T05:28:32;13.90;67.40
37560;DHT22;23398;50.928;7.084;2024-02-14T05:30:59;13.90;67.50
37560;DHT22;23398;50.928;7.084;2024-02-14T05:33:25;13.90;67.60
37560;DHT22;23398;50.928;7.084;2024-02-14T05:35:51;13.90;67.60
37560;DHT22;23398;50.928;7.084;2024-02-14T05:38:17;13.90;67.70
37560;DHT22;23398;50.928;7.084;2024-02-14T05:40:48;13.90;67.80
37560;DHT22;23398;50.928;7.084;2024-02-14T05:43:14;13.90;67.80
37560;DHT22;23398;50.928;7.084;2024-02-14T05:45:39;13.90;67.80
37560;DHT22;23398;50.928;7.084;2024-02-14T05:48:05;13.90;67.90
37560;DHT22;23398;50.928;7.084;2024-02-14T05:50:32;13.90;67.80
37560;DHT22;23398;50.928;7.084;2024-02-14T05:52:58;13.90;68.00
37560;DHT22;23398;50.928;7.084;2024-02-14T05:55:24;13.90;68.00
37560;DHT22;23398;50.928;7.084;2024-02-14T05:57:53;13.90;68.00
37560;DHT22;23398;50.928;7.084;2024-02-14T06:00:19;14.00;68.20
37560;DHT22;23398;50.928;7.084;2024-02-14T06:02:46;13.90;68.30
37560;DHT22;23398;50.928;7.084;2024-02-14T06:05:13;14.00;68.70
37560;DHT22;23398;50.928;7.084;2024-02-14T06:07:39;14.00;69.00
37560;DHT22;23398;50.928;7.084;2024-02-14T06:10:06;14.00;69.20
37560;DHT22;23398;50.928;7.084;2024-02-14T06:12:32;14.00;69.50
37560;DHT22;23398;50.928;7.084;2024-02-14T06:14:58;13.90;69.90
37560;DHT22;23398;50.928;7.084;2024-02-14T06:17:23;13.90;70.20
37560;DHT22;23398;50.928;7.084;2024-02-14T06:19:49;13.90;70.40
37560;DHT22;23398;50.928;7.084;2024-02-14T06:22:14;13.90;70.40
37560;DHT22;23398;50.928;7.084;2024-02-14T06:24:40;13.80;70.30
37560;DHT22;23398;50.928;7.084;2024-02-14T06:27:06;13.80;70.40
37560;DHT22;23398;50.928;7.084;2024-02-14T06:29:32;13.80;70.50
37560;DHT22;23398;50.928;7.084;2024-02-14T06:34:23;13.70;69.90
37560;DHT22;23398;50.928;7.084;2024-02-14T06:36:51;13.70;70.50
37560;DHT22;23398;50.928;7.084;2024-02-14T06:39:16;13.70;70.70
37560;DHT22;23398;50.928;7.084;2024-02-14T06:41:42;13.70;70.80
37560;DHT22;23398;50.928;7.084;2024-02-14T06:44:10;13.70;70.80
37560;DHT22;23398;50.928;7.084;2024-02-14T06:46:36;13.70;71.10
37560;DHT22;23398;50.928;7.084;2024-02-14T06:49:03;13.70;71.20
37560;DHT22;23398;50.928;7.084;2024-02-14T06:51:29;13.70;71.20
37560;DHT22;23398;50.928;7.084;2024-02-14T06:53:55;13.70;71.10
37560;DHT22;23398;50.928;7.084;2024-02-14T06:56:21;13.70;71.10
37560;DHT22;23398;50.928;7.084;2024-02-14T06:58:47;13.80;71.20
37560;DHT22;23398;50.928;7.084;2024-02-14T07:01:17;13.80;71.20
37560;DHT22;23398;50.928;7.084;2024-02-14T07:03:47;13.80;71.20
37560;DHT22;23398;50.928;7.084;2024-02-14T07:06:13;13.80;71.30
37560;DHT22;23398;50.928;7.084;2024-02-14T07:08:41;13.80;71.20
37560;DHT22;23398;50.928;7.084;2024-02-14T07:11:06;13.90;71.20
37560;DHT22;23398;50.928;7.084;2024-02-14T07:13:32;13.90;71.10
37560;DHT22;23398;50.928;7.084;2024-02-14T07:15:57;13.90;71.00
37560;DHT22;23398;50.928;7.084;2024-02-14T07:18:23;13.90;71.00
37560;DHT22;23398;50.928;7.084;2024-02-14T07:20:49;14.00;71.00
37560;DHT22;23398;50.928;7.084;2024-02-14T07:23:14;14.00;71.00
37560;DHT22;23398;50.928;7.084;2024-02-14T07:25:40;14.00;70.90
37560;DHT22;23398;50.928;7.084;2024-02-14T07:28:06;14.00;70.80
37560;DHT22;23398;50.928;7.084;2024-02-14T07:30:31;14.10;70.80
37560;DHT22;23398;50.928;7.084;2024-02-14T07:32:57;14.20;70.80
37560;DHT22;23398;50.928;7.084;2024-02-14T07:35:23;14.10;70.60
37560;DHT22;23398;50.928;7.084;2024-02-14T07:37:48;14.20;70.80
37560;DHT22;23398;50.928;7.084;2024-02-14T07:40:14;14.20;70.90
37560;DHT22;23398;50.928;7.084;2024-02-14T07:42:40;14.20;71.10
37560;DHT22;23398;50.928;7.084;2024-02-14T07:45:05;14.30;71.20
37560;DHT22;23398;50.928;7.084;2024-02-14T07:47:31;14.30;71.90
37560;DHT22;23398;50.928;7.084;2024-02-14T07:49:57;14.30;71.00
37560;DHT22;23398;50.928;7.084;2024-02-14T07:52:23;14.40;71.10
37560;DHT22;23398;50.928;7.084;2024-02-14T07:54:55;14.40;70.90
37560;DHT22;23398;50.928;7.084;2024-02-14T07:57:24;14.40;70.90
37560;DHT22;23398;50.928;7.084;2024-02-14T07:59:50;14.50;70.90
37560;DHT22;23398;50.928;7.084;2024-02-14T08:02:17;14.50;70.90
37560;DHT22;23398;50.928;7.084;2024-02-14T08:04:43;14.50;70.80
37560;DHT22;23398;50.928;7.084;2024-02-14T08:07:09;14.60;70.80
37560;DHT22;23398;50.928;7.084;2024-02-14T08:09:35;14.70;70.90
37560;DHT22;23398;50.928;7.084;2024-02-14T08:12:01;14.70;70.90
37560;DHT22;23398;50.928;7.084;2024-02-14T08:14:26;14.70;71.00
37560;DHT22;23398;50.928;7.084;2024-02-14T08:16:52;14.80;71.10
37560;DHT22;23398;50.928;7.084;2024-02-14T08:19:18;14.90;71.00
37560;DHT22;23398;50.928;7.084;2024-02-14T08:21:44;14.90;70.80
37560;DHT22;23398;50.928;7.084;2024-02-14T08:24:10;15.00;70.60
37560;DHT22;23398;50.928;7.084;2024-02-14T08:26:35;15.10;70.40
37560;DHT22;23398;50.928;7.084;2024-02-14T08:29:01;15.10;70.30
37560;DHT22;23398;50.928;7.084;2024-02-14T08:31:27;15.20;70.30
37560;DHT22;23398;50.928;7.084;2024-02-14T08:33:53;15.30;70.30
37560;DHT22;23398;50.928;7.084;2024-02-14T08:36:19;15.30;70.00
37560;DHT22;23398;50.928;7.084;2024-02-14T08:38:44;15.40;69.90
37560;DHT22;23398;50.928;7.084;2024-02-14T08:41:10;15.50;69.80
37560;DHT22;23398;50.928;7.084;2024-02-14T08:43:36;15.60;69.60
37560;DHT22;23398;50.928;7.084;2024-02-14T08:46:01;15.60;69.40
37560;DHT22;23398;50.928;7.084;2024-02-14T08:48:28;15.70;69.20
37560;DHT22;23398;50.928;7.084;2024-02-14T08:50:56;15.70;69.00
37560;DHT22;23398;50.928;7.084;2024-02-14T08:53:21;15.80;68.80
37560;DHT22;23398;50.928;7.084;2024-02-14T08:55:47;15.90;68.70
37560;DHT22;23398;50.928;7.084;2024-02-14T08:58:13;15.90;68.50
37560;DHT22;23398;50.928;7.084;2024-02-14T09:00:39;16.00;68.40
37560;DHT22;23398;50.928;7.084;2024-02-14T09:03:05;16.00;68.40
37560;DHT22;23398;50.928;7.084;2024-02-14T09:05:31;16.00;68.40
37560;DHT22;23398;50.928;7.084;2024-02-14T09:07:56;16.10;68.50
37560;DHT22;23398;50.928;7.084;2024-02-14T09:10:22;16.20;68.50
37560;DHT22;23398;50.928;7.084;2024-02-14T09:12:48;16.20;68.20
37560;DHT22;23398;50.928;7.084;2024-02-14T09:15:14;16.20;68.20
37560;DHT22;23398;50.928;7.084;2024-02-14T09:17:40;16.30;68.40
37560;DHT22;23398;50.928;7.084;2024-02-14T09:20:10;16.40;68.40
37560;DHT22;23398;50.928;7.084;2024-02-14T09:22:39;16.50;68.20
37560;DHT22;23398;50.928;7.084;2024-02-14T09:25:07;16.60;68.30
37560;DHT22;23398;50.928;7.084;2024-02-14T09:27:35;16.70;68.40
37560;DHT22;23398;50.928;7.084;2024-02-14T09:30:04;16.90;69.00
37560;DHT22;23398;50.928;7.084;2024-02-14T09:32:30;17.10;69.70
37560;DHT22;23398;50.928;7.084;2024-02-14T09:34:58;17.50;70.20
37560;DHT22;23398;50.928;7.084;2024-02-14T09:37:23;17.90;69.50
37560;DHT22;23398;50.928;7.084;2024-02-14T09:39:49;18.30;68.50
37560;DHT22;23398;50.928;7.084;2024-02-14T09:42:16;18.60;67.70
37560;DHT22;23398;50.928;7.084;2024-02-14T09:44:45;19.00;67.10
37560;DHT22;23398;50.928;7.084;2024-02-14T09:47:12;19.20;66.20
37560;DHT22;23398;50.928;7.084;2024-02-14T09:49:39;19.50;65.50
37560;DHT22;23398;50.928;7.084;2024-02-14T09:52:05;19.70;64.90
37560;DHT22;23398;50.928;7.084;2024-02-14T09:54:31;19.90;64.30
37560;DHT22;23398;50.928;7.084;2024-02-14T09:57:00;20.10;63.80
37560;DHT22;23398;50.928;7.084;2024-02-14T09:59:28;20.30;63.40
37560;DHT22;23398;50.928;7.084;2024-02-14T10:01:54;20.40;62.70
37560;DHT22;23398;50.928;7.084;2024-02-14T10:04:20;20.50;61.90
37560;DHT22;23398;50.928;7.084;2024-02-14T10:06:46;20.50;61.40
37560;DHT22;23398;50.928;7.084;2024-02-14T10:09:11;20.50;61.70
37560;DHT22;23398;50.928;7.084;2024-02-14T10:11:37;20.50;60.80
37560;DHT22;23398;50.928;7.084;2024-02-14T10:14:06;20.40;60.40
37560;DHT22;23398;50.928;7.084;2024-02-14T10:16:35;20.40;60.30
37560;DHT22;23398;50.928;7.084;2024-02-14T10:19:01;20.30;60.20
37560;DHT22;23398;50.928;7.084;2024-02-14T10:21:28;19.90;59.90
37560;DHT22;23398;50.928;7.084;2024-02-14T10:23:53;20.30;60.30
37560;DHT22;23398;50.928;7.084;2024-02-14T10:26:23;20.00;60.20
37560;DHT22;23398;50.928;7.084;2024-02-14T10:28:48;20.00;60.40
37560;DHT22;23398;50.928;7.084;2024-02-14T10:31:16;19.90;60.30
37560;DHT22;23398;50.928;7.084;2024-02-14T10:33:41;19.90;60.40
37560;DHT22;23398;50.928;7.084;2024-02-14T10:36:08;19.80;60.40
37560;DHT22;23398;50.928;7.084;2024-02-14T10:38:34;19.70;60.50
37560;DHT22;23398;50.928;7.084;2024-02-14T10:41:01;19.60;60.50
37560;DHT22;23398;50.928;7.084;2024-02-14T10:43:27;19.50;60.50
37560;DHT22;23398;50.928;7.084;2024-02-14T10:45:56;19.50;60.90
37560;DHT22;23398;50.928;7.084;2024-02-14T10:48:24;19.40;60.90
37560;DHT22;23398;50.928;7.084;2024-02-14T10:50:53;19.30;61.20
37560;DHT22;23398;50.928;7.084;2024-02-14T10:53:20;19.30;61.40
37560;DHT22;23398;50.928;7.084;2024-02-14T10:55:49;19.30;61.60
37560;DHT22;23398;50.928;7.084;2024-02-14T10:58:17;19.30;61.90
37560;DHT22;23398;50.928;7.084;2024-02-14T11:00:44;19.30;62.00
37560;DHT22;23398;50.928;7.084;2024-02-14T11:03:10;19.30;62.10
37560;DHT22;23398;50.928;7.084;2024-02-14T11:05:48;19.30;61.90
37560;DHT22;23398;50.928;7.084;2024-02-14T11:08:21;19.40;61.70
37560;DHT22;23398;50.928;7.084;2024-02-14T11:10:55;19.50;61.80
37560;DHT22;23398;50.928;7.084;2024-02-14T11:13:28;19.50;61.50
37560;DHT22;23398;50.928;7.084;2024-02-14T11:15:57;19.50;61.60
37560;DHT22;23398;50.928;7.084;2024-02-14T11:18:29;19.60;61.70
37560;DHT22;23398;50.928;7.084;2024-02-14T11:20:58;19.70;61.60
37560;DHT22;23398;50.928;7.084;2024-02-14T11:23:24;19.80;61.40
37560;DHT22;23398;50.928;7.084;2024-02-14T11:26:15;19.80;61.20
37560;DHT22;23398;50.928;7.084;2024-02-14T11:28:40;19.80;60.90
37560;DHT22;23398;50.928;7.084;2024-02-14T11:31:07;19.80;61.90
37560;DHT22;23398;50.928;7.084;2024-02-14T11:33:35;19.90;61.00
37560;DHT22;23398;50.928;7.084;2024-02-14T11:36:07;19.90;61.00
37560;DHT22;23398;50.928;7.084;2024-02-14T11:38:36;19.90;60.70
37560;DHT22;23398;50.928;7.084;2024-02-14T11:41:02;19.90;60.90
37560;DHT22;23398;50.928;7.084;2024-02-14T11:43:29;20.00;60.80
37560;DHT22;23398;50.928;7.084;2024-02-14T11:45:55;20.10;60.70
37560;DHT22;23398;50.928;7.084;2024-02-14T11:48:21;20.00;60.50
37560;DHT22;23398;50.928;7.084;2024-02-14T11:50:48;20.00;60.40
37560;DHT22;23398;50.928;7.084;2024-02-14T11:53:15;20.00;60.30
37560;DHT22;23398;50.928;7.084;2024-02-14T11:55:45;20.00;60.10
37560;DHT22;23398;50.928;7.084;2024-02-14T11:58:13;20.00;60.00
37560;DHT22;23398;50.928;7.084;2024-02-14T12:00:43;20.00;60.00
37560;DHT22;23398;50.928;7.084;2024-02-14T12:03:20;20.00;60.10
37560;DHT22;23398;50.928;7.084;2024-02-14T12:05:49;19.90;60.00
37560;DHT22;23398;50.928;7.084;2024-02-14T12:08:16;19.90;60.10
37560;DHT22;23398;50.928;7.084;2024-02-14T12:10:44;19.90;60.00
37560;DHT22;23398;50.928;7.084;2024-02-14T12:13:13;19.80;60.10
37560;DHT22;23398;50.928;7.084;2024-02-14T12:15:44;19.80;60.10
37560;DHT22;23398;50.928;7.084;2024-02-14T12:18:11;19.80;60.00
37560;DHT22;23398;50.928;7.084;2024-02-14T12:20:37;19.70;61.00
37560;DHT22;23398;50.928;7.084;2024-02-14T12:23:04;19.70;60.30
37560;DHT22;23398;50.928;7.084;2024-02-14T12:25:31;19.70;60.40
37560;DHT22;23398;50.928;7.084;2024-02-14T12:27:57;19.70;60.60
37560;DHT22;23398;50.928;7.084;2024-02-14T12:33:29;19.60;60.60
37560;DHT22;23398;50.928;7.084;2024-02-14T12:35:57;19.60;60.90
37560;DHT22;23398;50.928;7.084;2024-02-14T12:38:24;19.60;60.90
37560;DHT22;23398;50.928;7.084;2024-02-14T12:40:50;19.60;60.90
37560;DHT22;23398;50.928;7.084;2024-02-14T12:43:19;19.60;60.90
37560;DHT22;23398;50.928;7.084;2024-02-14T12:45:45;19.60;60.90
37560;DHT22;23398;50.928;7.084;2024-02-14T12:48:12;19.60;60.80
37560;DHT22;23398;50.928;7.084;2024-02-14T12:50:39;19.50;60.70
37560;DHT22;23398;50.928;7.084;2024-02-14T12:53:06;19.50;60.70
37560;DHT22;23398;50.928;7.084;2024-02-14T12:55:32;19.50;60.70
37560;DHT22;23398;50.928;7.084;2024-02-14T12:57:58;19.50;60.70
37560;DHT22;23398;50.928;7.084;2024-02-14T13:00:24;19.40;60.60
37560;DHT22;23398;50.928;7.084;2024-02-14T13:02:50;19.40;60.70
37560;DHT22;23398;50.928;7.084;2024-02-14T13:05:16;19.40;60.70
37560;DHT22;23398;50.928;7.084;2024-02-14T13:07:42;19.40;60.80
37560;DHT22;23398;50.928;7.084;2024-02-14T13:10:08;19.30;60.70
37560;DHT22;23398;50.928;7.084;2024-02-14T13:12:39;19.30;60.90
37560;DHT22;23398;50.928;7.084;2024-02-14T13:15:06;19.30;61.00
37560;DHT22;23398;50.928;7.084;2024-02-14T13:17:31;19.30;61.20
37560;DHT22;23398;50.928;7.084;2024-02-14T13:19:57;19.20;61.10
37560;DHT22;23398;50.928;7.084;2024-02-14T13:22:25;19.20;61.20
37560;DHT22;23398;50.928;7.084;2024-02-14T13:24:51;19.20;61.30
37560;DHT22;23398;50.928;7.084;2024-02-14T13:27:16;19.20;61.50
37560;DHT22;23398;50.928;7.084;2024-02-14T13:29:42;19.10;61.70
37560;DHT22;23398;50.928;7.084;2024-02-14T13:32:08;19.10;62.10
37560;DHT22;23398;50.928;7.084;2024-02-14T13:34:34;19.10;62.20
37560;DHT22;23398;50.928;7.084;2024-02-14T13:37:00;19.10;62.10
37560;DHT22;23398;50.928;7.084;2024-02-14T13:39:26;19.10;62.10
37560;DHT22;23398;50.928;7.084;2024-02-14T13:41:51;19.00;62.00
37560;DHT22;23398;50.928;7.084;2024-02-14T13:44:18;19.00;62.10
37560;DHT22;23398;50.928;7.084;2024-02-14T13:46:45;18.90;62.00
37560;DHT22;23398;50.928;7.084;2024-02-14T13:49:11;18.90;62.00
37560;DHT22;23398;50.928;7.084;2024-02-14T13:51:41;18.80;62.00
37560;DHT22;23398;50.928;7.084;2024-02-14T13:54:07;18.80;62.40
37560;DHT22;23398;50.928;7.084;2024-02-14T13:56:34;18.70;62.60
37560;DHT22;23398;50.928;7.084;2024-02-14T13:59:00;18.70;62.90
37560;DHT22;23398;50.928;7.084;2024-02-14T14:01:25;18.60;63.00
37560;DHT22;23398;50.928;7.084;2024-02-14T14:03:52;18.60;63.60
37560;DHT22;23398;50.928;7.084;2024-02-14T14:06:20;18.50;64.00
37560;DHT22;23398;50.928;7.084;2024-02-14T14:08:46;18.40;64.30
37560;DHT22;23398;50.928;7.084;2024-02-14T14:11:12;18.30;64.40
37560;DHT22;23398;50.928;7.084;2024-02-14T14:13:37;18.30;64.50
37560;DHT22;23398;50.928;7.084;2024-02-14T14:16:03;18.20;65.00
37560;DHT22;23398;50.928;7.084;2024-02-14T14:18:30;18.10;65.20
37560;DHT22;23398;50.928;7.084;2024-02-14T14:20:56;18.00;65.60
37560;DHT22;23398;50.928;7.084;2024-02-14T14:23:21;17.90;66.20
37560;DHT22;23398;50.928;7.084;2024-02-14T14:25:47;17.80;66.40
37560;DHT22;23398;50.928;7.084;2024-02-14T14:28:13;17.70;66.80
37560;DHT22;23398;50.928;7.084;2024-02-14T14:30:40;17.60;67.10
37560;DHT22;23398;50.928;7.084;2024-02-14T14:33:05;17.60;67.90
37560;DHT22;23398;50.928;7.084;2024-02-14T14:35:33;17.50;68.20
37560;DHT22;23398;50.928;7.084;2024-02-14T14:37:59;17.40;68.60
37560;DHT22;23398;50.928;7.084;2024-02-14T14:40:25;17.30;68.80
37560;DHT22;23398;50.928;7.084;2024-02-14T14:42:51;17.20;69.20
37560;DHT22;23398;50.928;7.084;2024-02-14T14:45:18;17.20;69.70
37560;DHT22;23398;50.928;7.084;2024-02-14T14:47:43;17.10;70.10
37560;DHT22;23398;50.928;7.084;2024-02-14T14:50:09;17.00;70.60
37560;DHT22;23398;50.928;7.084;2024-02-14T14:52:34;16.90;70.90
37560;DHT22;23398;50.928;7.084;2024-02-14T14:55:00;16.90;71.00
37560;DHT22;23398;50.928;7.084;2024-02-14T14:57:26;16.80;71.40
37560;DHT22;23398;50.928;7.084;2024-02-14T14:59:55;16.70;71.80
37560;DHT22;23398;50.928;7.084;2024-02-14T15:02:20;16.60;72.20
37560;DHT22;23398;50.928;7.084;2024-02-14T15:04:47;16.60;72.20
37560;DHT22;23398;50.928;7.084;2024-02-14T15:07:13;16.50;72.80
37560;DHT22;23398;50.928;7.084;2024-02-14T15:09:39;16.40;72.90
37560;DHT22;23398;50.928;7.084;2024-02-14T15:12:04;16.40;73.20
37560;DHT22;23398;50.928;7.084;2024-02-14T15:14:30;16.30;73.60
37560;DHT22;23398;50.928;7.084;2024-02-14T15:16:56;16.30;73.80
37560;DHT22;23398;50.928;7.084;2024-02-14T15:19:22;16.20;74.20
37560;DHT22;23398;50.928;7.084;2024-02-14T15:21:50;16.10;74.80
37560;DHT22;23398;50.928;7.084;2024-02-14T15:24:15;16.00;75.10
37560;DHT22;23398;50.928;7.084;2024-02-14T15:26:41;16.00;75.60
37560;DHT22;23398;50.928;7.084;2024-02-14T15:29:18;15.90;76.20
37560;DHT22;23398;50.928;7.084;2024-02-14T15:32:02;15.90;76.90